Time;durP1;ratioP1;P1;durP2;ratioP2;P2;SDS_P1;SDS_P2;PMS_P1;PMS_P2;Temp;Humidity;BMP_temperature;BMP_pressure;BME280_temperature;BME280_humidity;BME280_pressure;Samples;Min_cycle;Max_cycle;Signal;HPM_P1;HPM_P2
2023/08/23 00:00:03;;;;;;;5.70;5.30;;;;;;;;;;5054528;28;20230;-59
2023/08/23 00:02:30;;;;;;;7.53;5.50;;;;;;;;;;5056564;28;20340;-59
2023/08/23 00:04:57;;;;;;;9.23;5.35;;;;;;;;;;5055366;28;20708;-59
2023/08/23 00:07:25;;;;;;;6.55;5.68;;;;;;;;;;5054760;28;20214;-59
2023/08/23 00:09:52;;;;;;;7.25;5.65;;;;;;;;;;5058887;28;20573;-59
2023/08/23 00:12:20;;;;;;;7.75;5.95;;;;;;;;;;5057020;28;20214;-60
2023/08/23 00:14:47;;;;;;;9.63;5.65;;;;;;;;;;5059173;28;20203;-59
2023/08/23 00:17:14;;;;;;;10.50;5.38;;;;;;;;;;5060220;28;20245;-59
2023/08/23 00:19:41;;;;;;;6.05;5.57;;;;;;;;;;5058233;28;20223;-59
2023/08/23 00:22:08;;;;;;;6.30;5.70;;;;;;;;;;5058378;28;20207;-59
2023/08/23 00:24:35;;;;;;;6.15;5.70;;;;;;;;;;5059527;28;20219;-60
2023/08/23 00:27:02;;;;;;;5.88;5.35;;;;;;;;;;5059769;28;20207;-59
2023/08/23 00:29:31;;;;;;;7.93;5.68;;;;;;;;;;5058961;28;20635;-59
2023/08/23 00:31:58;;;;;;;6.47;5.57;;;;;;;;;;5057550;28;20211;-59
2023/08/23 00:34:25;;;;;;;7.82;5.53;;;;;;;;;;5057698;28;20215;-59
2023/08/23 00:36:52;;;;;;;6.20;5.70;;;;;;;;;;5058163;28;20218;-59
2023/08/23 00:39:19;;;;;;;6.47;5.82;;;;;;;;;;5058565;28;20572;-60
2023/08/23 00:41:46;;;;;;;6.40;6.00;;;;;;;;;;5058782;28;20305;-59
2023/08/23 00:44:13;;;;;;;11.98;6.70;;;;;;;;;;5058758;28;20554;-60
2023/08/23 00:46:42;;;;;;;7.10;6.40;;;;;;;;;;5060045;28;20241;-59
2023/08/23 00:49:09;;;;;;;6.75;6.20;;;;;;;;;;5059100;28;20201;-60
2023/08/23 00:51:36;;;;;;;8.27;6.10;;;;;;;;;;5058913;28;20701;-59
2023/08/23 00:54:04;;;;;;;6.88;6.03;;;;;;;;;;5058812;28;20204;-59
2023/08/23 00:56:32;;;;;;;7.45;5.90;;;;;;;;;;5057668;28;20203;-59
2023/08/23 00:59:00;;;;;;;8.88;6.00;;;;;;;;;;5052944;28;20202;-59
2023/08/23 01:01:27;;;;;;;6.78;6.22;;;;;;;;;;5054304;28;20603;-60
2023/08/23 01:03:57;;;;;;;7.40;6.32;;;;;;;;;;5052688;28;20228;-59
2023/08/23 01:06:33;;;;;;;6.97;5.88;;;;;;;;;;5055389;28;20319;-59
2023/08/23 01:09:04;;;;;;;6.32;5.70;;;;;;;;;;5046047;28;20207;-59
2023/08/23 01:11:35;;;;;;;6.40;6.00;;;;;;;;;;5048231;28;20231;-59
2023/08/23 01:14:03;;;;;;;6.40;5.95;;;;;;;;;;5056281;28;20211;-59
2023/08/23 01:16:31;;;;;;;8.32;5.75;;;;;;;;;;5056418;28;20705;-59
2023/08/23 01:19:01;;;;;;;6.38;5.88;;;;;;;;;;5057677;28;20196;-58
2023/08/23 01:21:32;;;;;;;7.97;7.18;;;;;;;;;;5056988;28;20229;-59
2023/08/23 01:24:08;;;;;;;7.45;6.72;;;;;;;;;;5054984;28;20226;-59
2023/08/23 01:26:35;;;;;;;6.43;5.95;;;;;;;;;;5058679;28;20231;-59
2023/08/23 01:29:02;;;;;;;10.60;6.40;;;;;;;;;;5057141;28;20217;-59
2023/08/23 01:31:32;;;;;;;7.45;6.00;;;;;;;;;;5057790;28;20207;-59
2023/08/23 01:34:02;;;;;;;10.70;6.10;;;;;;;;;;5055412;28;20210;-59
2023/08/23 01:36:30;;;;;;;6.82;6.20;;;;;;;;;;5055879;28;20218;-59
2023/08/23 01:38:58;;;;;;;6.57;6.05;;;;;;;;;;5068855;28;20218;-59
2023/08/23 01:41:27;;;;;;;6.45;6.00;;;;;;;;;;5057691;28;20211;-58
2023/08/23 01:43:54;;;;;;;6.72;6.18;;;;;;;;;;5054747;28;20203;-59
2023/08/23 01:46:21;;;;;;;6.97;6.30;;;;;;;;;;5066611;28;20441;-58
2023/08/23 01:48:48;;;;;;;7.03;6.32;;;;;;;;;;5065801;28;20218;-59
2023/08/23 01:51:15;;;;;;;7.55;6.78;;;;;;;;;;5046059;28;20203;-59
2023/08/23 01:53:42;;;;;;;14.93;6.53;;;;;;;;;;5045620;28;20207;-60
2023/08/23 01:56:09;;;;;;;6.32;5.82;;;;;;;;;;5065826;28;20203;-59
2023/08/23 01:58:37;;;;;;;9.20;6.55;;;;;;;;;;5063318;28;20222;-60
2023/08/23 02:01:04;;;;;;;6.78;6.13;;;;;;;;;;5047491;28;20239;-59
2023/08/23 02:03:31;;;;;;;7.30;6.47;;;;;;;;;;5058481;28;20665;-59
2023/08/23 02:05:58;;;;;;;6.60;6.00;;;;;;;;;;5066092;28;20664;-59
2023/08/23 02:08:25;;;;;;;7.47;6.82;;;;;;;;;;5063869;28;20208;-59
2023/08/23 02:10:53;;;;;;;8.25;6.22;;;;;;;;;;5047416;28;20304;-59
2023/08/23 02:13:20;;;;;;;7.07;6.50;;;;;;;;;;5049559;28;20207;-59
2023/08/23 02:15:48;;;;;;;9.40;7.20;;;;;;;;;;5057156;28;20204;-58
2023/08/23 02:18:15;;;;;;;10.75;6.53;;;;;;;;;;5051993;28;20275;-58
2023/08/23 02:20:42;;;;;;;9.35;6.50;;;;;;;;;;5061672;28;20211;-58
2023/08/23 02:23:09;;;;;;;7.45;6.65;;;;;;;;;;5065349;28;20211;-58
2023/08/23 02:25:36;;;;;;;7.05;6.13;;;;;;;;;;5049540;28;20231;-59
2023/08/23 02:28:03;;;;;;;6.88;6.38;;;;;;;;;;5052896;28;20215;-58
2023/08/23 02:30:31;;;;;;;7.43;6.72;;;;;;;;;;5047396;28;20212;-58
2023/08/23 02:32:59;;;;;;;6.80;6.20;;;;;;;;;;5049780;28;20199;-59
2023/08/23 02:35:27;;;;;;;10.38;6.00;;;;;;;;;;5063358;28;20203;-59
2023/08/23 02:37:54;;;;;;;6.43;6.03;;;;;;;;;;5047174;28;20702;-58
2023/08/23 02:40:21;;;;;;;9.38;7.00;;;;;;;;;;5047608;28;20239;-59
2023/08/23 02:42:48;;;;;;;8.05;6.57;;;;;;;;;;5047519;28;20238;-59
2023/08/23 02:45:16;;;;;;;8.93;7.13;;;;;;;;;;5058502;28;20218;-59
2023/08/23 02:47:43;;;;;;;7.95;6.45;;;;;;;;;;5067528;28;20328;-59
2023/08/23 02:50:11;;;;;;;7.47;6.78;;;;;;;;;;5067189;28;20290;-59
2023/08/23 02:52:38;;;;;;;8.82;7.15;;;;;;;;;;5047629;28;20207;-59
2023/08/23 02:55:06;;;;;;;7.90;6.93;;;;;;;;;;5062709;28;20210;-58
2023/08/23 02:57:33;;;;;;;7.72;7.03;;;;;;;;;;5065607;28;20221;-59
2023/08/23 03:00:00;;;;;;;8.15;7.35;;;;;;;;;;5067253;28;20203;-58
2023/08/23 03:02:27;;;;;;;9.25;6.88;;;;;;;;;;5067171;28;20246;-58
2023/08/23 03:04:54;;;;;;;8.10;7.28;;;;;;;;;;5053818;28;20211;-59
2023/08/23 03:07:22;;;;;;;7.93;7.38;;;;;;;;;;5057583;28;20226;-59
2023/08/23 03:09:49;;;;;;;7.15;6.75;;;;;;;;;;5067543;28;20226;-59
2023/08/23 03:12:16;;;;;;;8.27;7.28;;;;;;;;;;5067596;28;20222;-59
2023/08/23 03:14:43;;;;;;;8.13;7.03;;;;;;;;;;5066164;28;20206;-59
2023/08/23 03:17:10;;;;;;;8.25;7.32;;;;;;;;;;5061228;28;20231;-59
2023/08/23 03:19:37;;;;;;;8.05;7.35;;;;;;;;;;5063388;28;20683;-59
2023/08/23 03:22:04;;;;;;;8.45;7.60;;;;;;;;;;5067140;28;20214;-59
2023/08/23 03:24:33;;;;;;;7.85;7.30;;;;;;;;;;5056293;28;20212;-59
2023/08/23 03:27:00;;;;;;;8.32;7.55;;;;;;;;;;5063878;28;20233;-59
2023/08/23 03:29:27;;;;;;;7.85;7.15;;;;;;;;;;5067110;28;20214;-59
2023/08/23 03:31:54;;;;;;;7.82;7.13;;;;;;;;;;5067423;28;20207;-58
2023/08/23 03:34:21;;;;;;;10.27;7.63;;;;;;;;;;5064237;28;20218;-58
2023/08/23 03:36:50;;;;;;;8.52;7.70;;;;;;;;;;5066881;28;20305;-59
2023/08/23 03:39:17;;;;;;;9.10;7.90;;;;;;;;;;5064098;28;20234;-59
2023/08/23 03:41:45;;;;;;;7.80;7.20;;;;;;;;;;5065429;28;20207;-59
2023/08/23 03:44:12;;;;;;;8.63;7.40;;;;;;;;;;5056184;28;20204;-58
2023/08/23 03:46:39;;;;;;;9.00;7.82;;;;;;;;;;5065757;28;20223;-59
2023/08/23 03:49:06;;;;;;;10.23;7.45;;;;;;;;;;5070137;28;20250;-59
2023/08/23 03:51:33;;;;;;;8.27;7.45;;;;;;;;;;5070768;28;20214;-59
2023/08/23 03:54:00;;;;;;;9.32;7.72;;;;;;;;;;5059283;28;20208;-58
2023/08/23 03:56:27;;;;;;;10.13;7.50;;;;;;;;;;5060696;28;20572;-59
2023/08/23 03:58:57;;;;;;;8.63;8.02;;;;;;;;;;5070450;28;20214;-59
2023/08/23 04:01:24;;;;;;;8.80;8.00;;;;;;;;;;5060655;28;20235;-59
2023/08/23 04:03:51;;;;;;;8.30;7.78;;;;;;;;;;5049192;28;20216;-59
2023/08/23 04:06:18;;;;;;;13.98;8.27;;;;;;;;;;5049961;28;20231;-59
2023/08/23 04:08:45;;;;;;;8.38;7.65;;;;;;;;;;5050005;28;20234;-59
2023/08/23 04:11:12;;;;;;;8.02;7.43;;;;;;;;;;5050891;28;20214;-58
2023/08/23 04:13:39;;;;;;;8.45;7.55;;;;;;;;;;5060991;28;20685;-59
2023/08/23 04:16:07;;;;;;;8.23;7.50;;;;;;;;;;5051012;28;20207;-59
2023/08/23 04:18:34;;;;;;;8.20;7.43;;;;;;;;;;5064117;28;20219;-58
2023/08/23 04:21:01;;;;;;;8.95;7.85;;;;;;;;;;5069280;28;20221;-59
2023/08/23 04:23:29;;;;;;;8.82;7.93;;;;;;;;;;5059732;28;20203;-59
2023/08/23 04:25:56;;;;;;;8.45;7.50;;;;;;;;;;5058389;28;20234;-58
2023/08/23 04:28:23;;;;;;;10.07;7.28;;;;;;;;;;5070142;28;20560;-59
2023/08/23 04:30:50;;;;;;;9.65;8.10;;;;;;;;;;5063506;28;20222;-59
2023/08/23 04:33:19;;;;;;;8.18;7.38;;;;;;;;;;5050841;28;20207;-59
2023/08/23 04:35:46;;;;;;;7.85;7.28;;;;;;;;;;5066087;28;20240;-59
2023/08/23 04:38:13;;;;;;;7.70;7.13;;;;;;;;;;5065136;28;20436;-59
2023/08/23 04:40:40;;;;;;;7.95;7.45;;;;;;;;;;5066532;28;20214;-59
2023/08/23 04:43:07;;;;;;;7.85;6.95;;;;;;;;;;5056464;28;20196;-58
2023/08/23 04:45:37;;;;;;;10.18;7.35;;;;;;;;;;5042595;28;20710;-59
2023/08/23 04:48:04;;;;;;;7.40;6.80;;;;;;;;;;5043986;28;20262;-58
2023/08/23 04:50:34;;;;;;;8.40;7.38;;;;;;;;;;5043985;28;20211;-58
2023/08/23 04:53:01;;;;;;;8.77;7.60;;;;;;;;;;5046855;28;20223;-59
2023/08/23 04:55:28;;;;;;;9.80;7.15;;;;;;;;;;5056197;28;20203;-59
2023/08/23 04:57:55;;;;;;;7.85;7.20;;;;;;;;;;5055744;28;20207;-59
2023/08/23 05:00:22;;;;;;;7.85;7.20;;;;;;;;;;5065728;28;20207;-59
2023/08/23 05:02:50;;;;;;;8.25;7.43;;;;;;;;;;5066927;28;20288;-59
2023/08/23 05:05:17;;;;;;;8.27;7.47;;;;;;;;;;5065563;28;20585;-59
2023/08/23 05:07:46;;;;;;;7.57;6.88;;;;;;;;;;5069118;28;20222;-59
2023/08/23 05:10:13;;;;;;;8.13;7.15;;;;;;;;;;5052348;28;20211;-58
2023/08/23 05:12:40;;;;;;;12.13;7.80;;;;;;;;;;5050962;28;20215;-59
2023/08/23 05:15:08;;;;;;;7.30;6.75;;;;;;;;;;5047819;28;20261;-59
2023/08/23 05:17:35;;;;;;;8.23;7.45;;;;;;;;;;5048159;28;20214;-59
2023/08/23 05:20:02;;;;;;;7.20;6.50;;;;;;;;;;5054018;28;20218;-59
2023/08/23 05:22:29;;;;;;;8.00;7.20;;;;;;;;;;5054819;28;20230;-59
2023/08/23 05:24:58;;;;;;;7.35;6.78;;;;;;;;;;5059891;28;20226;-58
2023/08/23 05:27:25;;;;;;;7.60;7.07;;;;;;;;;;5066935;28;20219;-58
2023/08/23 05:29:52;;;;;;;6.68;6.28;;;;;;;;;;5050656;28;20219;-61
2023/08/23 05:32:19;;;;;;;10.82;6.35;;;;;;;;;;5060522;28;20206;-59
2023/08/23 05:34:46;;;;;;;6.95;6.30;;;;;;;;;;5051769;28;20203;-59
2023/08/23 05:37:14;;;;;;;7.78;6.40;;;;;;;;;;5048030;28;20211;-60
2023/08/23 05:39:41;;;;;;;6.82;6.22;;;;;;;;;;5048403;28;20227;-59
2023/08/23 05:42:09;;;;;;;8.07;6.65;;;;;;;;;;5048332;28;20292;-59
2023/08/23 05:44:36;;;;;;;8.88;6.03;;;;;;;;;;5048400;28;20204;-59
2023/08/23 05:47:03;;;;;;;7.57;6.90;;;;;;;;;;5065526;28;20219;-59
2023/08/23 05:49:30;;;;;;;7.60;7.10;;;;;;;;;;5063703;28;20203;-59
2023/08/23 05:51:57;;;;;;;7.80;7.00;;;;;;;;;;5063884;28;20219;-59
2023/08/23 05:54:24;;;;;;;9.07;8.13;;;;;;;;;;5055889;28;20276;-59
2023/08/23 05:56:51;;;;;;;8.35;7.32;;;;;;;;;;5066896;28;20205;-59
2023/08/23 05:59:20;;;;;;;10.35;6.38;;;;;;;;;;5066081;28;20214;-59
2023/08/23 06:01:47;;;;;;;7.22;6.47;;;;;;;;;;5056804;28;20246;-60
2023/08/23 06:04:14;;;;;;;11.02;7.18;;;;;;;;;;5058391;28;20573;-59
2023/08/23 06:06:41;;;;;;;6.88;6.38;;;;;;;;;;5059727;28;20231;-62
2023/08/23 06:09:08;;;;;;;6.78;6.18;;;;;;;;;;5061890;28;20215;-59
2023/08/23 06:11:35;;;;;;;6.90;6.40;;;;;;;;;;5059014;28;20643;-59
2023/08/23 06:14:16;;;;;;;7.13;6.60;;;;;;;;;;5057518;28;20199;-63
2023/08/23 06:16:45;;;;;;;6.68;6.10;;;;;;;;;;5048978;28;20674;-64
2023/08/23 06:19:12;;;;;;;7.65;5.85;;;;;;;;;;5053379;28;20210;-63
2023/08/23 06:21:39;;;;;;;7.60;6.90;;;;;;;;;;5059546;28;20253;-63
2023/08/23 06:24:06;;;;;;;6.35;5.82;;;;;;;;;;5056802;28;20225;-66
2023/08/23 06:26:33;;;;;;;6.55;6.05;;;;;;;;;;5058496;28;20206;-63
2023/08/23 06:29:00;;;;;;;6.30;5.80;;;;;;;;;;5058459;28;20215;-63
2023/08/23 06:31:27;;;;;;;7.20;5.82;;;;;;;;;;5067749;28;20237;-63
2023/08/23 06:33:55;;;;;;;7.32;6.72;;;;;;;;;;5066663;28;20207;-63
2023/08/23 06:36:22;;;;;;;9.57;6.43;;;;;;;;;;5054443;28;20207;-64
2023/08/23 06:38:49;;;;;;;7.25;6.60;;;;;;;;;;5047362;28;20207;-63
2023/08/23 06:41:16;;;;;;;7.05;6.45;;;;;;;;;;5062161;28;20522;-63
2023/08/23 06:43:43;;;;;;;11.43;6.68;;;;;;;;;;5058958;28;20693;-63
2023/08/23 06:46:10;;;;;;;7.97;6.25;;;;;;;;;;5057695;28;20214;-63
2023/08/23 06:48:37;;;;;;;6.72;6.10;;;;;;;;;;5062180;28;20231;-61
2023/08/23 06:51:06;;;;;;;6.25;5.63;;;;;;;;;;5066626;28;20379;-63
2023/08/23 06:53:33;;;;;;;6.18;5.65;;;;;;;;;;5063306;28;20203;-63
2023/08/23 06:56:00;;;;;;;6.93;6.32;;;;;;;;;;5067037;28;20214;-63
2023/08/23 06:58:27;;;;;;;9.25;6.45;;;;;;;;;;5067350;28;20211;-63
2023/08/23 07:00:57;;;;;;;6.95;6.35;;;;;;;;;;5055022;28;20236;-63
2023/08/23 07:03:24;;;;;;;11.63;6.43;;;;;;;;;;5056116;28;20257;-62
2023/08/23 07:05:51;;;;;;;6.10;5.63;;;;;;;;;;5066296;28;20223;-63
2023/08/23 07:08:19;;;;;;;7.07;6.30;;;;;;;;;;5066519;28;20832;-63
2023/08/23 07:10:46;;;;;;;6.93;5.75;;;;;;;;;;5060803;28;20234;-64
2023/08/23 07:13:13;;;;;;;8.35;6.70;;;;;;;;;;5061081;28;20209;-63
2023/08/23 07:15:41;;;;;;;8.82;6.97;;;;;;;;;;5046261;28;20200;-63
2023/08/23 07:18:08;;;;;;;8.23;6.35;;;;;;;;;;5042997;28;20332;-64
2023/08/23 07:20:35;;;;;;;6.82;6.18;;;;;;;;;;5069963;28;20241;-64
2023/08/23 07:23:03;;;;;;;6.03;5.63;;;;;;;;;;5069154;28;20210;-63
2023/08/23 07:25:31;;;;;;;8.57;6.50;;;;;;;;;;5070044;28;20580;-64
2023/08/23 07:27:58;;;;;;;9.57;6.25;;;;;;;;;;5070097;28;20231;-64
2023/08/23 07:30:25;;;;;;;7.32;6.65;;;;;;;;;;5070117;28;20590;-63
2023/08/23 07:32:52;;;;;;;6.20;5.72;;;;;;;;;;5068959;28;20665;-63
2023/08/23 07:35:19;;;;;;;8.43;5.53;;;;;;;;;;5067786;28;20203;-64
2023/08/23 07:37:46;;;;;;;6.10;5.63;;;;;;;;;;5052238;28;20211;-64
2023/08/23 07:40:13;;;;;;;7.45;5.80;;;;;;;;;;5056980;28;20222;-64
2023/08/23 07:42:42;;;;;;;6.72;5.82;;;;;;;;;;5064690;28;20204;-64
2023/08/23 07:45:10;;;;;;;6.75;6.18;;;;;;;;;;5058846;28;20277;-64
2023/08/23 07:47:37;;;;;;;6.82;6.15;;;;;;;;;;5063386;28;20231;-64
2023/08/23 07:50:04;;;;;;;7.32;5.82;;;;;;;;;;5055559;28;20203;-68
2023/08/23 07:52:31;;;;;;;7.05;6.10;;;;;;;;;;5067148;28;20630;-63
2023/08/23 07:54:58;;;;;;;10.05;5.93;;;;;;;;;;5060542;28;20246;-61
2023/08/23 07:57:25;;;;;;;5.97;5.47;;;;;;;;;;5051632;28;20287;-61
2023/08/23 07:59:55;;;;;;;5.95;5.38;;;;;;;;;;5068410;28;20724;-62
2023/08/23 08:02:22;;;;;;;5.63;5.22;;;;;;;;;;5064435;28;20249;-62
2023/08/23 08:04:49;;;;;;;5.45;5.15;;;;;;;;;;5068680;28;20227;-69
2023/08/23 08:07:16;;;;;;;5.25;4.85;;;;;;;;;;5055835;28;20987;-65
2023/08/23 08:09:43;;;;;;;6.07;5.47;;;;;;;;;;5060931;28;20212;-64
2023/08/23 08:12:10;;;;;;;8.75;5.35;;;;;;;;;;5050429;28;20210;-65
2023/08/23 08:14:37;;;;;;;7.57;5.00;;;;;;;;;;5056538;28;20703;-63
2023/08/23 08:17:06;;;;;;;7.40;5.15;;;;;;;;;;5070204;28;20234;-64
2023/08/23 08:19:33;;;;;;;5.43;4.88;;;;;;;;;;5069596;28;20203;-62
2023/08/23 08:22:00;;;;;;;5.43;5.10;;;;;;;;;;5067604;28;20207;-64
2023/08/23 08:24:29;;;;;;;5.20;4.55;;;;;;;;;;5057330;28;20219;-63
2023/08/23 08:26:56;;;;;;;10.07;5.20;;;;;;;;;;5061342;28;20675;-65
2023/08/23 08:29:23;;;;;;;5.43;4.80;;;;;;;;;;5053469;28;20250;-64
2023/08/23 08:31:53;;;;;;;10.38;4.60;;;;;;;;;;5059346;28;20732;-65
2023/08/23 08:34:21;;;;;;;8.10;4.43;;;;;;;;;;5050108;28;20298;-64
2023/08/23 08:36:48;;;;;;;6.53;4.85;;;;;;;;;;5048675;28;20215;-65
2023/08/23 08:39:15;;;;;;;5.22;4.90;;;;;;;;;;5049533;28;20245;-62
2023/08/23 08:41:44;;;;;;;5.68;4.25;;;;;;;;;;5049482;28;20239;-62
2023/08/23 08:44:12;;;;;;;5.80;3.85;;;;;;;;;;5065970;28;20871;-61
2023/08/23 08:46:40;;;;;;;5.47;4.20;;;;;;;;;;5048995;28;20265;-62
2023/08/23 08:49:07;;;;;;;10.05;4.45;;;;;;;;;;5048653;28;20854;-62
2023/08/23 08:51:37;;;;;;;6.10;3.85;;;;;;;;;;5058238;28;20555;-62
2023/08/23 08:54:06;;;;;;;4.00;3.55;;;;;;;;;;5068345;28;20693;-62
2023/08/23 08:56:33;;;;;;;5.68;3.83;;;;;;;;;;5068844;28;20226;-62
2023/08/23 08:59:01;;;;;;;5.30;4.00;;;;;;;;;;5052854;28;20681;-63
2023/08/23 09:01:31;;;;;;;4.75;3.85;;;;;;;;;;5046252;28;20582;-63
2023/08/23 09:03:58;;;;;;;4.15;3.80;;;;;;;;;;5046635;28;20204;-63
2023/08/23 09:06:26;;;;;;;3.53;3.22;;;;;;;;;;5048120;28;20643;-62
2023/08/23 09:08:54;;;;;;;4.65;3.10;;;;;;;;;;5048674;28;20921;-63
2023/08/23 09:11:21;;;;;;;5.40;3.22;;;;;;;;;;5048272;28;20693;-63
2023/08/23 09:13:49;;;;;;;3.72;3.10;;;;;;;;;;5056102;28;20207;-63
2023/08/23 09:16:16;;;;;;;3.17;3.08;;;;;;;;;;5062373;28;20256;-63
2023/08/23 09:18:44;;;;;;;3.17;2.95;;;;;;;;;;5068418;28;20203;-62
2023/08/23 09:21:13;;;;;;;3.15;2.85;;;;;;;;;;5068738;28;20247;-72
2023/08/23 09:23:40;;;;;;;4.03;3.42;;;;;;;;;;5063829;28;20227;-68
2023/08/23 09:26:08;;;;;;;3.45;3.17;;;;;;;;;;5048313;28;20681;-69
2023/08/23 09:28:35;;;;;;;4.40;2.83;;;;;;;;;;5058216;28;20230;-67
2023/08/23 09:31:02;;;;;;;5.10;2.92;;;;;;;;;;5053375;28;20207;-67
2023/08/23 09:33:30;;;;;;;4.53;3.08;;;;;;;;;;5059971;28;20215;-66
2023/08/23 09:35:58;;;;;;;3.55;3.35;;;;;;;;;;5054131;28;20207;-67
2023/08/23 09:38:25;;;;;;;5.22;3.20;;;;;;;;;;5067044;28;20290;-64
2023/08/23 09:40:53;;;;;;;3.53;3.08;;;;;;;;;;5063551;28;20203;-65
2023/08/23 09:43:22;;;;;;;2.90;2.78;;;;;;;;;;5067079;28;20214;-65
2023/08/23 09:45:49;;;;;;;3.22;3.00;;;;;;;;;;5065474;28;20294;-64
2023/08/23 09:48:17;;;;;;;2.67;2.58;;;;;;;;;;5067561;28;20589;-65
2023/08/23 09:50:45;;;;;;;3.15;2.95;;;;;;;;;;5066327;28;20206;-67
2023/08/23 09:53:13;;;;;;;3.67;3.20;;;;;;;;;;5067151;28;20214;-65
2023/08/23 09:55:41;;;;;;;3.55;2.88;;;;;;;;;;5056613;28;20207;-65
2023/08/23 09:58:08;;;;;;;4.53;2.53;;;;;;;;;;5066309;28;20297;-66
2023/08/23 10:00:36;;;;;;;3.42;2.95;;;;;;;;;;5059910;28;20232;-66
2023/08/23 10:03:03;;;;;;;3.47;2.25;;;;;;;;;;5058912;28;20533;-66
2023/08/23 10:05:31;;;;;;;3.80;3.05;;;;;;;;;;5060613;28;20214;-66
2023/08/23 10:08:06;;;;;;;3.70;2.88;;;;;;;;;;5066034;28;20226;-67
2023/08/23 10:10:34;;;;;;;4.38;3.10;;;;;;;;;;5061400;28;20602;-66
2023/08/23 10:13:05;;;;;;;3.85;3.00;;;;;;;;;;5056108;28;20208;-66
2023/08/23 10:15:33;;;;;;;3.42;2.90;;;;;;;;;;5047978;28;20211;-66
2023/08/23 10:18:03;;;;;;;2.55;2.45;;;;;;;;;;5065476;28;20708;-66
2023/08/23 10:20:34;;;;;;;3.03;2.72;;;;;;;;;;5066238;28;20219;-68
2023/08/23 10:23:04;;;;;;;4.78;3.40;;;;;;;;;;5045221;28;20203;-67
2023/08/23 10:25:33;;;;;;;4.45;2.70;;;;;;;;;;5043384;28;20207;-65
2023/08/23 10:28:01;;;;;;;4.57;2.53;;;;;;;;;;5062085;28;20231;-65
2023/08/23 10:30:30;;;;;;;5.32;2.47;;;;;;;;;;5045514;28;20239;-66
2023/08/23 10:33:08;;;;;;;4.00;2.15;;;;;;;;;;5051203;28;20504;-66
2023/08/23 10:35:40;;;;;;;4.22;1.85;;;;;;;;;;5064168;28;20210;-65
2023/08/23 10:38:10;;;;;;;2.67;2.30;;;;;;;;;;5066354;28;20215;-66
2023/08/23 10:40:38;;;;;;;3.67;2.10;;;;;;;;;;5061951;28;20836;-66
2023/08/23 10:43:11;;;;;;;3.30;1.83;;;;;;;;;;5058407;28;20260;-66
2023/08/23 10:45:55;;;;;;;3.40;2.30;;;;;;;;;;5063755;28;20211;-66
2023/08/23 10:48:24;;;;;;;2.80;2.55;;;;;;;;;;5065054;28;20252;-66
2023/08/23 10:50:55;;;;;;;2.72;2.28;;;;;;;;;;5064347;28;20209;-66
2023/08/23 10:53:25;;;;;;;2.40;2.20;;;;;;;;;;5046890;28;20214;-67
2023/08/23 10:55:53;;;;;;;2.40;2.22;;;;;;;;;;5058558;28;20717;-66
2023/08/23 10:58:20;;;;;;;3.05;1.80;;;;;;;;;;5065663;28;20210;-65
2023/08/23 11:00:50;;;;;;;5.28;2.30;;;;;;;;;;5066134;28;20291;-66
2023/08/23 11:03:22;;;;;;;2.45;2.03;;;;;;;;;;5059324;28;20305;-67
2023/08/23 11:05:49;;;;;;;3.92;1.92;;;;;;;;;;5052542;28;20374;-66
2023/08/23 11:08:18;;;;;;;3.65;2.70;;;;;;;;;;5047529;28;20237;-66
2023/08/23 11:10:45;;;;;;;2.55;2.30;;;;;;;;;;5062889;28;20218;-65
2023/08/23 11:13:13;;;;;;;5.53;2.30;;;;;;;;;;5064303;28;20679;-66
2023/08/23 11:15:40;;;;;;;2.35;2.25;;;;;;;;;;5055579;28;20482;-66
2023/08/23 11:18:07;;;;;;;2.30;2.10;;;;;;;;;;5065250;28;20230;-66
2023/08/23 11:20:34;;;;;;;1.77;1.67;;;;;;;;;;5049119;28;20241;-62
2023/08/23 11:23:01;;;;;;;4.30;2.28;;;;;;;;;;5045680;28;20970;-62
2023/08/23 11:25:30;;;;;;;2.65;2.42;;;;;;;;;;5047347;28;20439;-63
2023/08/23 11:27:58;;;;;;;25.92;10.25;;;;;;;;;;5051923;28;20212;-70
2023/08/23 11:30:26;;;;;;;3.25;2.40;;;;;;;;;;5065462;28;20293;-62
2023/08/23 11:32:53;;;;;;;2.45;2.28;;;;;;;;;;5065258;28;20213;-62
2023/08/23 11:35:23;;;;;;;6.75;2.63;;;;;;;;;;5064306;28;20194;-62
2023/08/23 11:37:50;;;;;;;2.70;2.60;;;;;;;;;;5065987;28;20198;-63
2023/08/23 11:40:17;;;;;;;3.15;2.13;;;;;;;;;;5066096;28;20210;-61
2023/08/23 11:42:46;;;;;;;2.05;1.95;;;;;;;;;;5061152;28;20226;-62
2023/08/23 11:45:13;;;;;;;2.38;1.90;;;;;;;;;;5045698;28;20203;-62
2023/08/23 11:47:41;;;;;;;1.85;1.75;;;;;;;;;;5046240;28;20226;-62
2023/08/23 11:50:08;;;;;;;2.40;1.80;;;;;;;;;;5045872;28;20227;-62
2023/08/23 11:52:35;;;;;;;1.77;1.77;;;;;;;;;;5045922;28;20337;-62
2023/08/23 11:55:03;;;;;;;3.53;1.70;;;;;;;;;;5046818;28;20204;-62
2023/08/23 11:57:32;;;;;;;2.10;2.00;;;;;;;;;;5048961;28;20204;-74
2023/08/23 12:00:00;;;;;;;1.98;1.95;;;;;;;;;;5057649;28;20352;-60
2023/08/23 12:02:28;;;;;;;3.08;2.40;;;;;;;;;;5056909;28;20247;-62
2023/08/23 12:04:55;;;;;;;2.00;1.90;;;;;;;;;;5078273;28;20202;-62
2023/08/23 12:07:22;;;;;;;6.43;2.55;;;;;;;;;;5060714;28;20220;-62
2023/08/23 12:09:49;;;;;;;1.65;1.65;;;;;;;;;;5066814;28;20230;-62
2023/08/23 12:12:16;;;;;;;3.08;1.63;;;;;;;;;;5054216;28;20587;-61
2023/08/23 12:14:43;;;;;;;1.92;1.83;;;;;;;;;;5046296;28;20647;-61
2023/08/23 12:17:11;;;;;;;1.90;1.80;;;;;;;;;;5047963;28;20234;-61
2023/08/23 12:19:39;;;;;;;3.60;1.75;;;;;;;;;;5048248;28;20237;-61
2023/08/23 12:22:09;;;;;;;2.72;1.63;;;;;;;;;;5048048;28;20214;-61
2023/08/23 12:24:36;;;;;;;1.90;1.80;;;;;;;;;;5067193;28;20246;-61
2023/08/23 12:27:04;;;;;;;1.50;1.40;;;;;;;;;;5056198;28;20199;-61
2023/08/23 12:29:31;;;;;;;1.63;1.60;;;;;;;;;;5067459;28;21016;-61
2023/08/23 12:31:58;;;;;;;2.83;1.80;;;;;;;;;;5067860;28;20246;-61
2023/08/23 12:34:27;;;;;;;2.05;1.92;;;;;;;;;;5067476;28;20221;-61
2023/08/23 12:36:54;;;;;;;4.35;1.77;;;;;;;;;;5067640;28;20819;-62
2023/08/23 12:39:21;;;;;;;1.60;1.50;;;;;;;;;;5067804;28;20209;-62
2023/08/23 12:41:49;;;;;;;3.92;2.00;;;;;;;;;;5068135;28;20214;-62
2023/08/23 12:44:16;;;;;;;2.22;1.75;;;;;;;;;;5067738;28;20594;-62
2023/08/23 12:46:43;;;;;;;3.42;1.50;;;;;;;;;;5067514;28;20206;-62
2023/08/23 12:49:12;;;;;;;1.80;1.77;;;;;;;;;;5067444;28;20222;-62
2023/08/23 12:51:40;;;;;;;3.97;1.98;;;;;;;;;;5067344;28;20736;-62
2023/08/23 12:54:07;;;;;;;3.08;1.50;;;;;;;;;;5067160;28;20230;-62
2023/08/23 12:56:35;;;;;;;1.73;1.63;;;;;;;;;;5067538;28;20779;-62
2023/08/23 12:59:02;;;;;;;2.25;2.03;;;;;;;;;;5067826;28;20210;-61
2023/08/23 13:01:30;;;;;;;1.67;1.50;;;;;;;;;;5067138;28;20388;-61
2023/08/23 13:03:57;;;;;;;1.95;1.80;;;;;;;;;;5067135;28;20210;-61
2023/08/23 13:06:24;;;;;;;1.70;1.63;;;;;;;;;;5066944;28;20219;-62
2023/08/23 13:08:52;;;;;;;1.95;1.85;;;;;;;;;;5067016;28;20317;-62
2023/08/23 13:11:20;;;;;;;6.38;1.98;;;;;;;;;;5067455;28;20328;-62
2023/08/23 13:13:50;;;;;;;1.95;1.65;;;;;;;;;;5067225;28;20214;-61
2023/08/23 13:16:17;;;;;;;2.97;1.92;;;;;;;;;;5066791;28;20214;-61
2023/08/23 13:18:45;;;;;;;2.08;1.98;;;;;;;;;;5066640;28;20671;-62
2023/08/23 13:21:12;;;;;;;2.03;1.92;;;;;;;;;;5066737;28;20220;-62
2023/08/23 13:23:39;;;;;;;3.25;1.63;;;;;;;;;;5066395;28;20229;-61
2023/08/23 13:26:08;;;;;;;2.00;2.00;;;;;;;;;;5066926;28;20210;-63
2023/08/23 13:28:35;;;;;;;2.30;2.30;;;;;;;;;;5066913;28;20210;-61
2023/08/23 13:31:04;;;;;;;3.33;3.13;;;;;;;;;;5066846;28;20217;-61
2023/08/23 13:33:31;;;;;;;2.17;2.08;;;;;;;;;;5066177;28;20217;-62
2023/08/23 13:35:59;;;;;;;4.75;1.98;;;;;;;;;;5066407;28;20227;-61
2023/08/23 13:38:26;;;;;;;2.45;2.35;;;;;;;;;;5066103;28;20645;-62
2023/08/23 13:40:53;;;;;;;2.00;1.90;;;;;;;;;;5066351;28;20205;-62
2023/08/23 13:43:21;;;;;;;2.70;2.28;;;;;;;;;;5066514;28;20206;-61
2023/08/23 13:45:48;;;;;;;2.13;2.03;;;;;;;;;;5066335;28;20244;-62
2023/08/23 13:48:15;;;;;;;2.00;1.90;;;;;;;;;;5066029;28;20207;-62
2023/08/23 13:50:42;;;;;;;3.53;2.30;;;;;;;;;;5066123;28;20471;-63
2023/08/23 13:53:09;;;;;;;2.50;2.17;;;;;;;;;;5065817;28;20214;-62
2023/08/23 13:55:36;;;;;;;3.65;2.20;;;;;;;;;;5065671;28;20567;-61
2023/08/23 13:58:03;;;;;;;2.40;2.20;;;;;;;;;;5065736;28;20997;-62
2023/08/23 14:00:32;;;;;;;2.38;2.15;;;;;;;;;;5065074;28;20230;-61
2023/08/23 14:02:59;;;;;;;3.20;2.20;;;;;;;;;;5064991;28;20763;-61
2023/08/23 14:05:27;;;;;;;2.83;1.90;;;;;;;;;;5065297;28;20219;-62
2023/08/23 14:07:54;;;;;;;2.33;2.20;;;;;;;;;;5065056;28;20313;-62
2023/08/23 14:10:21;;;;;;;2.92;1.90;;;;;;;;;;5065776;28;20275;-61
2023/08/23 14:12:48;;;;;;;4.50;2.13;;;;;;;;;;5065186;28;21037;-61
2023/08/23 14:15:15;;;;;;;4.65;2.30;;;;;;;;;;5064960;28;20245;-61
2023/08/23 14:17:44;;;;;;;2.63;1.85;;;;;;;;;;5064695;28;20238;-61
2023/08/23 14:20:12;;;;;;;2.42;2.20;;;;;;;;;;5064705;28;20412;-61
2023/08/23 14:22:39;;;;;;;3.47;2.00;;;;;;;;;;5065051;28;20206;-61
2023/08/23 14:25:07;;;;;;;4.30;2.28;;;;;;;;;;5065520;28;20214;-61
2023/08/23 14:27:34;;;;;;;2.15;2.00;;;;;;;;;;5064284;28;20238;-62
2023/08/23 14:30:01;;;;;;;1.85;1.75;;;;;;;;;;5064716;28;20226;-61
2023/08/23 14:32:29;;;;;;;4.60;2.40;;;;;;;;;;5064862;28;20206;-61
2023/08/23 14:34:57;;;;;;;2.30;2.20;;;;;;;;;;5064986;28;20238;-62
2023/08/23 14:37:25;;;;;;;3.58;2.38;;;;;;;;;;5065378;28;20218;-61
2023/08/23 14:39:52;;;;;;;2.33;2.25;;;;;;;;;;5065665;28;20231;-61
2023/08/23 14:42:19;;;;;;;4.13;2.03;;;;;;;;;;5065357;28;20239;-61
2023/08/23 14:44:46;;;;;;;2.70;2.30;;;;;;;;;;5065435;28;20678;-61